createdAt,value
2019-04-21T00:01:00.363Z,10.40
2019-04-21T00:03:34.886Z,10.27
2019-04-21T00:06:18.379Z,11.20
2019-04-21T00:08:52.508Z,10.90
2019-04-21T00:11:16.093Z,10.60
2019-04-21T00:13:42.484Z,10.53
2019-04-21T00:16:03.108Z,10.60
2019-04-21T00:18:38.416Z,10.50
2019-04-21T00:21:12.420Z,10.60
2019-04-21T00:23:49.929Z,10.17
2019-04-21T00:26:16.380Z,10.27
2019-04-21T00:28:59.398Z,10.50
2019-04-21T00:31:22.377Z,10.40
2019-04-21T00:33:35.236Z,10.87
2019-04-21T00:36:11.513Z,10.47
2019-04-21T00:39:09.942Z,10.07
2019-04-21T00:41:24.988Z,11.07
2019-04-21T00:43:44.788Z,10.40
2019-04-21T00:46:12.364Z,11.10
2019-04-21T00:48:54.092Z,10.80
2019-04-21T00:51:36.096Z,10.93
2019-04-21T00:54:07.048Z,12.10
2019-04-21T00:56:30.403Z,13.93
2019-04-21T00:59:00.643Z,11.30
2019-04-21T01:01:24.972Z,11.00
2019-04-21T01:03:57.692Z,11.27
2019-04-21T01:06:30.199Z,10.33
2019-04-21T01:09:00.936Z,10.50
2019-04-21T01:11:45.982Z,11.13
2019-04-21T01:14:05.817Z,10.93
2019-04-21T01:16:33.475Z,10.20
2019-04-21T01:19:00.837Z,10.50
2019-04-21T01:21:14.469Z,10.77
2019-04-21T01:23:40.187Z,11.30
2019-04-21T01:26:22.627Z,10.57
2019-04-21T01:28:58.463Z,10.70
2019-04-21T01:31:25.815Z,10.90
2019-04-21T01:34:02.832Z,10.33
2019-04-21T01:36:26.024Z,10.63
2019-04-21T01:39:05.292Z,10.77
2019-04-21T01:41:37.305Z,10.87
2019-04-21T01:43:57.813Z,10.30
2019-04-21T01:46:25.621Z,10.60
2019-04-21T01:48:56.788Z,11.43
2019-04-21T01:51:28.344Z,11.23
2019-04-21T01:54:09.977Z,11.00
2019-04-21T01:56:51.409Z,10.97
2019-04-21T01:59:12.855Z,10.70
2019-04-21T02:02:02.380Z,10.83
2019-04-21T02:04:29.301Z,10.90
2019-04-21T02:06:57.358Z,10.80
2019-04-21T02:09:30.798Z,11.63
2019-04-21T02:12:04.289Z,10.90
2019-04-21T02:14:40.938Z,11.30
2019-04-21T02:17:08.389Z,11.50
2019-04-21T02:19:27.833Z,12.90
2019-04-21T02:21:54.362Z,13.53
2019-04-21T02:27:09.881Z,15.20
2019-04-21T02:29:33.149Z,11.67
2019-04-21T02:32:26.104Z,11.57
2019-04-21T02:35:04.067Z,11.60
2019-04-21T02:37:42.248Z,11.50
2019-04-21T02:39:48.985Z,10.80
2019-04-21T02:42:11.606Z,10.90
2019-04-21T02:47:16.739Z,11.93
2019-04-21T02:52:23.827Z,11.87
2019-04-21T02:57:15.561Z,11.20
2019-04-21T03:00:08.206Z,12.00
2019-04-21T03:05:20.403Z,11.50
2019-04-21T03:07:50.395Z,11.50
2019-04-21T03:12:38.517Z,12.20
2019-04-21T03:15:29.350Z,11.50
2019-04-21T03:22:42.314Z,11.43
2019-04-21T03:25:30.757Z,11.77
2019-04-21T03:30:31.887Z,12.53
2019-04-21T03:35:53.498Z,11.93
2019-04-21T03:37:45.283Z,11.70
2019-04-21T03:40:14.857Z,13.40
2019-04-21T03:45:27.157Z,13.97
2019-04-21T03:47:50.128Z,12.53
2019-04-21T03:50:20.494Z,12.43
2019-04-21T03:52:59.931Z,12.43
2019-04-21T04:03:27.494Z,12.43
2019-04-21T04:06:03.375Z,11.87
2019-04-21T04:13:49.714Z,12.30
2019-04-21T04:16:06.894Z,12.17
2019-04-21T04:21:12.315Z,12.70
2019-04-21T04:23:47.401Z,12.47
2019-04-21T04:26:09.093Z,13.63
2019-04-21T04:33:53.404Z,13.20
2019-04-21T04:36:13.066Z,12.20
2019-04-21T04:39:01.663Z,12.20
2019-04-21T04:43:54.601Z,12.90
2019-04-21T04:46:18.197Z,12.60
2019-04-21T04:48:51.375Z,13.30
2019-04-21T04:51:28.833Z,12.60
2019-04-21T04:56:20.529Z,13.27
2019-04-21T04:59:18.626Z,14.27
2019-04-21T05:01:34.885Z,13.43
2019-04-21T05:04:05.857Z,13.17
2019-04-21T05:06:46.248Z,13.20
2019-04-21T05:19:13.213Z,13.83
2019-04-21T05:23:51.184Z,13.93
2019-04-21T05:26:14.482Z,14.60
2019-04-21T05:28:44.802Z,13.77
2019-04-21T05:31:38.850Z,14.20
2019-04-21T05:34:07.474Z,13.80
2019-04-21T05:36:38.288Z,13.63
2019-04-21T05:39:10.628Z,13.90
2019-04-21T05:41:31.451Z,14.33
2019-04-21T05:44:13.344Z,14.70
2019-04-21T05:46:49.530Z,14.00
2019-04-21T05:49:20.551Z,13.57
2019-04-21T05:52:01.546Z,13.50
2019-04-21T05:57:05.960Z,13.70
2019-04-21T05:59:40.156Z,14.40
2019-04-21T06:02:18.534Z,13.80
2019-04-21T06:04:57.025Z,12.77
2019-04-21T06:07:13.682Z,14.90
2019-04-21T06:09:48.947Z,13.60
2019-04-21T06:12:10.030Z,13.30
2019-04-21T06:14:46.877Z,14.03
2019-04-21T06:17:19.418Z,14.27
2019-04-21T06:19:49.409Z,14.57
2019-04-21T06:22:08.975Z,14.50
2019-04-21T06:24:54.757Z,13.90
2019-04-21T06:27:17.636Z,14.40
2019-04-21T06:29:43.957Z,14.50
2019-04-21T06:34:59.108Z,14.07
2019-04-21T06:37:40.550Z,14.40
2019-04-21T06:40:01.829Z,13.90
2019-04-21T06:42:13.268Z,14.53
2019-04-21T06:47:24.693Z,14.87
2019-04-21T06:49:52.422Z,14.07
2019-04-21T06:52:43.574Z,14.10
2019-04-21T06:57:21.779Z,14.27
2019-04-21T06:59:54.364Z,14.47
2019-04-21T07:02:39.913Z,15.40
2019-04-21T07:04:54.634Z,14.70
2019-04-21T07:07:26.200Z,14.73
2019-04-21T07:09:57.206Z,14.43
2019-04-21T07:12:18.740Z,14.00
2019-04-21T07:14:53.254Z,14.07
2019-04-21T07:17:24.708Z,14.33
2019-04-21T07:19:57.207Z,14.60
2019-04-21T07:22:27.319Z,14.17
2019-04-21T07:24:54.507Z,14.80
2019-04-21T07:27:24.155Z,14.63
2019-04-21T07:29:56.545Z,15.37
2019-04-21T07:32:20.809Z,15.33
2019-04-21T07:34:57.834Z,15.50
2019-04-21T07:37:25.581Z,13.77
2019-04-21T07:39:53.122Z,14.53
2019-04-21T07:42:20.832Z,14.90
2019-04-21T07:44:46.051Z,15.07
2019-04-21T07:47:28.437Z,15.90
2019-04-21T07:50:03.480Z,14.53
2019-04-21T07:52:39.557Z,15.47
2019-04-21T07:57:33.083Z,14.83
2019-04-21T08:00:14.911Z,14.63
2019-04-21T08:02:38.565Z,15.00
2019-04-21T08:07:49.334Z,14.70
2019-04-21T08:10:02.862Z,14.90
2019-04-21T08:12:32.981Z,15.57
2019-04-21T08:15:15.717Z,15.40
2019-04-21T08:17:36.450Z,16.40
2019-04-21T08:20:09.272Z,15.57
2019-04-21T08:22:41.519Z,16.20
2019-04-21T08:25:08.728Z,15.80
2019-04-21T08:27:46.454Z,15.60
2019-04-21T08:30:09.045Z,14.87
2019-04-21T08:32:57.242Z,14.87
2019-04-21T08:35:48.471Z,16.70
2019-04-21T08:37:40.511Z,15.30
2019-04-21T08:40:17.705Z,15.20
2019-04-21T08:42:40.007Z,14.93
2019-04-21T08:45:15.099Z,15.20
2019-04-21T08:47:42.642Z,15.10
2019-04-21T08:50:08.446Z,15.30
2019-04-21T08:55:12.227Z,15.33
2019-04-21T08:58:00.744Z,14.63
2019-04-21T09:00:29.593Z,14.90
2019-04-21T09:02:57.470Z,15.00
2019-04-21T09:05:23.505Z,15.30
2019-04-21T09:07:57.217Z,14.63
2019-04-21T09:10:30.858Z,13.87
2019-04-21T09:13:01.428Z,12.80
2019-04-21T09:15:27.683Z,13.23
2019-04-21T09:17:48.671Z,12.67
2019-04-21T09:20:33.749Z,12.90
2019-04-21T09:23:00.788Z,13.43
2019-04-21T09:25:37.301Z,13.87
2019-04-21T09:28:01.902Z,13.03
2019-04-21T09:30:12.853Z,11.60
2019-04-21T09:32:42.466Z,13.80
2019-04-21T09:35:14.864Z,12.90
2019-04-21T09:37:51.415Z,13.13
2019-04-21T09:40:13.433Z,12.27
2019-04-21T09:42:50.368Z,12.40
2019-04-21T09:45:13.793Z,12.10
2019-04-21T09:47:52.281Z,12.00
2019-04-21T09:50:13.494Z,13.67
2019-04-21T09:52:49.995Z,11.50
2019-04-21T09:55:18.915Z,11.40
2019-04-21T09:57:48.492Z,11.90
2019-04-21T10:00:20.600Z,11.57
2019-04-21T10:02:53.450Z,11.30
2019-04-21T10:05:14.548Z,11.20
2019-04-21T10:07:44.245Z,11.70
2019-04-21T10:10:13.423Z,11.77
2019-04-21T10:12:41.838Z,11.60
2019-04-21T10:15:10.722Z,11.10
2019-04-21T10:17:41.856Z,9.60
2019-04-21T10:20:11.796Z,10.17
2019-04-21T10:22:41.350Z,10.60
2019-04-21T10:25:10.666Z,10.70
2019-04-21T10:27:41.219Z,11.03
2019-04-21T10:30:12.066Z,10.73
2019-04-21T10:32:40.751Z,11.00
2019-04-21T10:35:10.902Z,10.90
2019-04-21T10:37:52.670Z,11.40
2019-04-21T10:40:11.622Z,11.63
2019-04-21T10:42:40.481Z,10.90
2019-04-21T10:45:10.851Z,11.23
2019-04-21T10:47:40.931Z,11.20
2019-04-21T10:50:10.945Z,10.80
2019-04-21T10:52:57.086Z,10.37
2019-04-21T10:55:44.741Z,11.70
2019-04-21T10:58:11.330Z,11.50
2019-04-21T11:00:42.258Z,11.30
2019-04-21T11:03:29.116Z,11.00
2019-04-21T11:06:08.654Z,10.93
2019-04-21T11:08:41.585Z,10.90
2019-04-21T11:11:08.059Z,11.30
2019-04-21T11:13:37.016Z,10.97
2019-04-21T11:16:05.639Z,11.07
2019-04-21T11:18:34.203Z,11.53
2019-04-21T11:21:03.096Z,10.87
2019-04-21T11:23:31.702Z,11.47
2019-04-21T11:26:00.254Z,10.97
2019-04-21T11:28:29.229Z,11.27
2019-04-21T11:30:57.819Z,10.90
2019-04-21T11:33:27.137Z,11.07
2019-04-21T11:35:57.299Z,10.20
2019-04-21T11:38:58.200Z,10.17
2019-04-21T11:41:14.411Z,10.63
2019-04-21T11:43:43.221Z,11.10
2019-04-21T11:46:12.734Z,10.40
2019-04-21T11:48:42.135Z,10.30
2019-04-21T11:51:11.098Z,10.60
2019-04-21T11:53:41.021Z,10.10
2019-04-21T11:56:09.559Z,10.47
2019-04-21T11:58:39.529Z,9.90
2019-04-21T12:01:09.611Z,9.80
2019-04-21T12:03:38.165Z,9.83
2019-04-21T12:06:07.209Z,9.73
2019-04-21T12:08:42.259Z,9.68
2019-04-21T12:11:07.259Z,9.55
2019-04-21T12:13:36.337Z,9.20
2019-04-21T12:16:05.371Z,9.50
2019-04-21T12:18:34.096Z,9.30
2019-04-21T12:21:03.249Z,9.10
2019-04-21T12:23:32.410Z,9.03
2019-04-21T12:26:01.462Z,9.50
2019-04-21T12:28:30.304Z,9.10
2019-04-21T12:31:00.122Z,9.03
2019-04-21T12:33:34.137Z,9.60
2019-04-21T12:36:03.894Z,9.85
2019-04-21T12:38:42.752Z,8.80
2019-04-21T12:41:04.535Z,9.10
2019-04-21T12:43:33.251Z,9.85
2019-04-21T12:46:02.308Z,9.85
2019-04-21T12:48:31.779Z,8.90
2019-04-21T12:51:01.747Z,9.03
2019-04-21T12:53:31.795Z,9.30
2019-04-21T12:56:02.007Z,9.30
2019-04-21T12:58:31.153Z,9.65
2019-04-21T13:01:00.949Z,9.40
2019-04-21T13:03:30.376Z,9.20
2019-04-21T13:05:59.041Z,9.00
2019-04-21T13:08:27.614Z,9.30
2019-04-21T13:10:56.626Z,9.53
2019-04-21T13:13:26.161Z,9.40
2019-04-21T13:15:55.749Z,10.13
2019-04-21T13:18:24.360Z,9.88
2019-04-21T13:20:54.022Z,10.08
2019-04-21T13:23:23.099Z,10.20
2019-04-21T13:25:51.928Z,9.90
2019-04-21T13:28:20.721Z,10.50
2019-04-21T13:30:50.621Z,10.70
2019-04-21T13:33:19.286Z,10.67
2019-04-21T13:35:48.869Z,10.60
2019-04-21T13:38:26.977Z,11.03
2019-04-21T13:41:05.488Z,10.87
2019-04-21T13:43:20.945Z,10.53
2019-04-21T13:45:49.964Z,10.93
2019-04-21T13:48:18.920Z,11.60
2019-04-21T13:50:47.442Z,11.37
2019-04-21T13:53:16.650Z,11.23
2019-04-21T13:55:46.724Z,12.47
2019-04-21T13:58:16.680Z,11.57
2019-04-21T14:00:45.663Z,12.40
2019-04-21T14:03:14.647Z,11.80
2019-04-21T14:05:44.504Z,11.40
2019-04-21T14:08:13.414Z,11.00
2019-04-21T14:10:42.090Z,11.30
2019-04-21T14:13:12.154Z,11.30
2019-04-21T14:15:42.350Z,11.57
2019-04-21T14:18:11.302Z,11.43
2019-04-21T14:20:39.918Z,11.57
2019-04-21T14:23:19.151Z,11.03
2019-04-21T14:25:39.625Z,11.30
2019-04-21T14:28:08.228Z,11.10
2019-04-21T14:30:36.690Z,11.27
2019-04-21T14:33:05.365Z,10.87
2019-04-21T14:35:34.827Z,11.10
2019-04-21T14:38:04.823Z,11.10
2019-04-21T14:40:36.686Z,10.30
2019-04-21T14:43:04.128Z,11.60
2019-04-21T14:45:40.776Z,11.30
2019-04-21T14:48:23.273Z,10.70
2019-04-21T14:51:00.006Z,11.10
2019-04-21T14:53:30.246Z,10.70
2019-04-21T14:55:59.535Z,11.20
2019-04-21T14:58:28.149Z,11.07
2019-04-21T15:00:59.985Z,10.20
2019-04-21T15:03:29.964Z,10.57
2019-04-21T15:05:58.539Z,9.60
2019-04-21T15:08:27.326Z,10.53
2019-04-21T15:10:56.894Z,11.07
2019-04-21T15:13:25.959Z,10.30
2019-04-21T15:15:54.469Z,10.83
2019-04-21T15:18:23.028Z,10.90
2019-04-21T15:20:51.569Z,10.83
2019-04-21T15:23:23.070Z,11.00
2019-04-21T15:25:50.580Z,11.60
2019-04-21T15:28:20.114Z,11.40
2019-04-21T15:30:48.685Z,11.17
2019-04-21T15:33:18.214Z,11.00
2019-04-21T15:35:47.058Z,11.27
2019-04-21T15:38:16.142Z,10.30
2019-04-21T15:40:51.936Z,10.50
2019-04-21T15:43:14.900Z,10.63
2019-04-21T15:45:44.554Z,10.70
2019-04-21T15:48:14.019Z,10.97
2019-04-21T15:50:44.039Z,10.80
2019-04-21T15:53:15.938Z,11.30
2019-04-21T15:55:46.692Z,10.10
2019-04-21T15:58:20.617Z,12.13
2019-04-21T16:00:52.426Z,10.40
2019-04-21T16:03:21.089Z,10.57
2019-04-21T16:05:50.794Z,10.63
2019-04-21T16:08:20.645Z,11.00
2019-04-21T16:10:56.086Z,10.80
2019-04-21T16:13:21.562Z,20.07
2019-04-21T16:15:52.434Z,10.60
2019-04-21T16:18:22.491Z,10.53
2019-04-21T16:20:51.641Z,10.77
2019-04-21T16:23:20.572Z,10.83
2019-04-21T16:25:50.661Z,10.93
2019-04-21T16:28:19.392Z,11.80
2019-04-21T16:30:48.810Z,14.90
2019-04-21T16:33:18.552Z,12.23
2019-04-21T16:35:47.587Z,10.70
2019-04-21T16:38:17.502Z,11.80
2019-04-21T16:40:54.285Z,11.40
2019-04-21T16:43:16.469Z,10.70
2019-04-21T16:45:44.926Z,12.37
2019-04-21T16:48:15.008Z,11.37
2019-04-21T16:50:43.673Z,11.13
2019-04-21T16:53:16.570Z,10.80
2019-04-21T16:56:02.675Z,11.60
2019-04-21T16:58:42.944Z,12.20
2019-04-21T17:01:16.378Z,10.97
2019-04-21T17:03:44.421Z,11.60
2019-04-21T17:06:13.260Z,11.57
2019-04-21T17:08:43.050Z,11.03
2019-04-21T17:11:18.808Z,11.87
2019-04-21T17:13:42.129Z,12.00
2019-04-21T17:16:36.475Z,10.97
2019-04-21T17:18:56.637Z,10.50
2019-04-21T17:21:12.683Z,10.77
2019-04-21T17:23:41.690Z,12.07
2019-04-21T17:26:10.989Z,11.60
2019-04-21T17:28:40.654Z,10.57
2019-04-21T17:31:10.827Z,11.07
2019-04-21T17:33:39.472Z,10.40
2019-04-21T17:36:09.241Z,10.77
2019-04-21T17:38:37.740Z,10.97
2019-04-21T17:41:16.579Z,10.60
2019-04-21T17:43:41.606Z,10.30
2019-04-21T17:46:13.571Z,10.10
2019-04-21T17:48:40.737Z,11.00
2019-04-21T17:51:17.388Z,10.97
2019-04-21T17:53:53.786Z,10.70
2019-04-21T17:56:51.022Z,10.50
2019-04-21T17:59:15.245Z,10.90
2019-04-21T18:01:45.539Z,10.23
2019-04-21T18:04:15.244Z,10.97
2019-04-21T18:06:46.312Z,10.60
2019-04-21T18:09:28.915Z,11.20
2019-04-21T18:11:51.424Z,10.87
2019-04-21T18:14:02.918Z,10.80
2019-04-21T18:16:39.223Z,10.60
2019-04-21T18:19:02.535Z,10.83
2019-04-21T18:21:41.329Z,11.10
2019-04-21T18:24:15.615Z,11.07
2019-04-21T18:26:47.412Z,11.60
2019-04-21T18:29:09.484Z,11.30
2019-04-21T18:31:44.569Z,11.33
2019-04-21T18:34:14.761Z,11.10
2019-04-21T18:36:48.219Z,11.87
2019-04-21T18:39:32.517Z,12.00
2019-04-21T18:42:05.067Z,12.50
2019-04-21T18:44:46.315Z,12.73
2019-04-21T18:47:20.659Z,13.20
2019-04-21T18:49:52.393Z,13.13
2019-04-21T18:52:42.177Z,12.53
2019-04-21T18:55:09.548Z,13.13
2019-04-21T18:57:35.554Z,11.70
2019-04-21T18:59:57.365Z,12.57
2019-04-21T19:02:26.713Z,13.00
2019-04-21T19:05:02.380Z,13.10
2019-04-21T19:07:48.679Z,13.17
2019-04-21T19:10:22.783Z,12.83
2019-04-21T19:13:09.112Z,13.17
2019-04-21T19:15:18.086Z,13.33
2019-04-21T19:20:20.627Z,13.53
2019-04-21T19:22:44.451Z,14.17
2019-04-21T19:25:16.437Z,14.60
2019-04-21T19:27:48.836Z,13.40
2019-04-21T19:30:24.927Z,14.03
2019-04-21T19:32:45.513Z,14.00
2019-04-21T19:35:01.874Z,13.83
2019-04-21T19:37:38.318Z,13.27
2019-04-21T19:40:11.895Z,14.20
2019-04-21T19:42:40.784Z,14.10
2019-04-21T19:45:17.906Z,13.97
2019-04-21T19:47:49.967Z,14.07
2019-04-21T19:50:15.871Z,14.13
2019-04-21T19:52:41.035Z,14.70
2019-04-21T19:55:00.977Z,14.37
2019-04-21T19:57:31.332Z,14.97
2019-04-21T20:00:03.695Z,14.07
2019-04-21T20:02:30.324Z,15.13
2019-04-21T20:05:05.066Z,15.60
2019-04-21T20:07:45.785Z,15.23
2019-04-21T20:10:22.681Z,14.87
2019-04-21T20:12:45.265Z,16.80
2019-04-21T20:15:26.582Z,15.30
2019-04-21T20:17:49.516Z,14.73
2019-04-21T20:20:00.518Z,14.90
2019-04-21T20:22:34.938Z,14.67
2019-04-21T20:25:06.569Z,14.37
2019-04-21T20:27:38.655Z,13.27
2019-04-21T20:30:14.022Z,13.20
2019-04-21T20:32:54.708Z,14.03
2019-04-21T20:35:25.134Z,13.30
2019-04-21T20:37:48.949Z,13.57
2019-04-21T20:40:05.116Z,14.80
2019-04-21T20:42:42.660Z,13.50
2019-04-21T20:47:37.719Z,14.47
2019-04-21T20:50:18.393Z,14.40
2019-04-21T20:52:53.805Z,13.47
2019-04-21T20:55:14.511Z,13.10
2019-04-21T20:57:48.991Z,12.33
2019-04-21T21:00:22.169Z,13.47
2019-04-21T21:02:55.571Z,12.60
2019-04-21T21:05:19.044Z,12.67
2019-04-21T21:08:13.674Z,12.00
2019-04-21T21:10:20.812Z,12.30
2019-04-21T21:13:04.302Z,12.10
2019-04-21T21:15:24.651Z,11.83
2019-04-21T21:17:59.360Z,11.70
2019-04-21T21:20:31.713Z,11.47
2019-04-21T21:22:55.369Z,11.40
2019-04-21T21:25:36.126Z,11.67
2019-04-21T21:27:53.219Z,10.83
2019-04-21T21:30:30.017Z,10.50
2019-04-21T21:33:00.843Z,22.50
2019-04-21T21:35:26.050Z,13.27
2019-04-21T21:38:04.549Z,13.63
2019-04-21T21:40:30.488Z,10.73
2019-04-21T21:42:46.175Z,10.87
2019-04-21T21:45:18.334Z,10.33
2019-04-21T21:48:00.727Z,10.60
2019-04-21T21:50:23.672Z,10.33
2019-04-21T21:52:55.282Z,10.60
2019-04-21T21:55:16.054Z,11.03
2019-04-21T21:57:49.827Z,11.33
2019-04-21T22:00:17.553Z,10.70
2019-04-21T22:02:51.299Z,10.97
2019-04-21T22:05:24.272Z,10.90
2019-04-21T22:07:51.921Z,11.13
2019-04-21T22:10:20.747Z,11.20
2019-04-21T22:12:58.044Z,11.03
2019-04-21T22:15:24.926Z,11.80
2019-04-21T22:18:07.547Z,11.60
2019-04-21T22:20:40.118Z,11.37
2019-04-21T22:22:59.411Z,10.97
2019-04-21T22:25:26.711Z,11.27
2019-04-21T22:27:51.928Z,11.13
2019-04-21T22:30:29.974Z,11.33
2019-04-21T22:33:00.108Z,10.77
2019-04-21T22:35:30.053Z,10.50
2019-04-21T22:38:10.578Z,11.27
2019-04-21T22:40:33.827Z,10.53
2019-04-21T22:43:04.465Z,10.50
2019-04-21T22:45:25.149Z,10.30
2019-04-21T22:47:58.720Z,10.27
2019-04-21T22:50:28.650Z,10.23
2019-04-21T22:53:02.097Z,10.80
2019-04-21T22:55:31.629Z,10.73
2019-04-21T22:57:59.851Z,10.60
2019-04-21T23:00:30.167Z,9.93
2019-04-21T23:03:03.841Z,9.97
2019-04-21T23:05:36.321Z,10.50
2019-04-21T23:08:06.522Z,10.40
2019-04-21T23:10:32.231Z,10.07
2019-04-21T23:13:07.145Z,9.77
2019-04-21T23:15:38.366Z,10.00
2019-04-21T23:18:22.138Z,10.17
2019-04-21T23:20:53.669Z,9.90
2019-04-21T23:23:23.666Z,9.97
2019-04-21T23:25:45.945Z,9.70
2019-04-21T23:28:16.020Z,10.63
2019-04-21T23:30:54.498Z,10.27
2019-04-21T23:33:07.096Z,10.37
2019-04-21T23:35:38.796Z,10.43
2019-04-21T23:38:06.552Z,10.40
2019-04-21T23:40:33.345Z,10.07
2019-04-21T23:43:09.321Z,10.30
2019-04-21T23:45:37.700Z,10.37
2019-04-21T23:48:19.828Z,10.57
2019-04-21T23:50:44.361Z,10.70
2019-04-21T23:53:03.594Z,10.00
2019-04-21T23:55:32.458Z,10.10
2019-04-21T23:58:07.074Z,10.27
